Aradon Berria — EA3095 — position and weather

sailwx.info

Track history (hours):
 
Tides and Currents Weather Stations Pressure Air Temp Water Temp Dewpoint Dewpoint Depression Visibility Wind Speed Wind Dir Waves Ship Positions

Aradon Berria

Last reported at 2017-Dec-08 15:28 UTC. Time now 2017-Dec-16 11:31 UTC.
Position N 43°52' W 007°42'.

Length 25 m; draft 3.8 m.

Type: Fishing. MMSI: 224030940.

Date/timePositionNaut miles runAvg speedWind from/ knotsBaromVisibWave heightAir tempDewpointWater temp
2017-Dec-08 15:28N 43°52' W 007°42'1 1.6
2017-Dec-08 14:59N 43°51' W 007°40'1 1.4
2017-Dec-08 14:30N 43°51' W 007°40'1 1.4
2017-Dec-08 13:52N 43°51' W 007°38'1 1.6
2017-Dec-08 13:16N 43°51' W 007°37'1 1.5
2017-Dec-08 12:46N 43°51' W 007°36'0 1.5
2017-Dec-08 12:29N 43°50' W 007°36'1 1.5
2017-Dec-08 11:59N 43°50' W 007°35'1 1.4
2017-Dec-08 11:12N 43°50' W 007°33'0 1.2
2017-Dec-08 10:51N 43°50' W 007°33'1 1.1
2017-Dec-08 10:00N 43°51' W 007°31'1 0.9
2017-Dec-08 09:17N 43°50' W 007°32'0 0.6
2017-Dec-08 08:55N 43°50' W 007°32'1 0.7
2017-Dec-08 08:05N 43°50' W 007°32'1 3.7
2017-Dec-08 07:56N 43°50' W 007°33'2 3.8
2017-Dec-08 07:29N 43°50' W 007°35'3 4.1
2017-Dec-08 06:52N 43°51' W 007°39'2 4.2
2017-Dec-08 06:28N 43°51' W 007°41'3 2.8
2017-Dec-08 05:28N 43°51' W 007°37'204 7.6
2017-Dec-07 02:32N 43°46' W 002°55'0 8.1
2017-Dec-07 02:30N 43°46' W 002°54'4 7.5
2017-Dec-07 02:00N 43°47' W 002°49'4 8.1
2017-Dec-07 01:30N 43°50' W 002°46'4 8.2
2017-Dec-07 01:00N 43°53' W 002°42'4 8.3
2017-Dec-07 00:30N 43°56' W 002°38'4 8.4
2017-Dec-07 00:00N 43°60' W 002°35'7 8.4
2017-Dec-06 23:13N 44°05' W 002°29'  
Track history (hours):
 
Tides and Currents Weather Stations Pressure Air Temp Water Temp Dewpoint Dewpoint Depression Visibility Wind Speed Wind Dir Waves Ship Positions

Aradon Berria

Last reported at 2017-Dec-08 15:28 UTC. Time now 2017-Dec-16 11:31 UTC.
Position N 43°52' W 007°42'.

Length 25 m; draft 3.8 m.

Type: Fishing. MMSI: 224030940.

Date/timePositionNaut miles runAvg speedWind from/ knotsBaromVisibWave heightAir tempDewpointWater temp
2017-Dec-08 15:28N 43°52' W 007°42'1 1.6
2017-Dec-08 14:59N 43°51' W 007°40'1 1.4
2017-Dec-08 14:30N 43°51' W 007°40'1 1.4
2017-Dec-08 13:52N 43°51' W 007°38'1 1.6
2017-Dec-08 13:16N 43°51' W 007°37'1 1.5
2017-Dec-08 12:46N 43°51' W 007°36'0 1.5
2017-Dec-08 12:29N 43°50' W 007°36'1 1.5
2017-Dec-08 11:59N 43°50' W 007°35'1 1.4
2017-Dec-08 11:12N 43°50' W 007°33'0 1.2
2017-Dec-08 10:51N 43°50' W 007°33'1 1.1
2017-Dec-08 10:00N 43°51' W 007°31'1 0.9
2017-Dec-08 09:17N 43°50' W 007°32'0 0.6
2017-Dec-08 08:55N 43°50' W 007°32'1 0.7
2017-Dec-08 08:05N 43°50' W 007°32'1 3.7
2017-Dec-08 07:56N 43°50' W 007°33'2 3.8
2017-Dec-08 07:29N 43°50' W 007°35'3 4.1
2017-Dec-08 06:52N 43°51' W 007°39'2 4.2
2017-Dec-08 06:28N 43°51' W 007°41'3 2.8
2017-Dec-08 05:28N 43°51' W 007°37'204 7.6
2017-Dec-07 02:32N 43°46' W 002°55'0 8.1
2017-Dec-07 02:30N 43°46' W 002°54'4 7.5
2017-Dec-07 02:00N 43°47' W 002°49'4 8.1
2017-Dec-07 01:30N 43°50' W 002°46'4 8.2
2017-Dec-07 01:00N 43°53' W 002°42'4 8.3
2017-Dec-07 00:30N 43°56' W 002°38'4 8.4
2017-Dec-07 00:00N 43°60' W 002°35'7 8.4
2017-Dec-06 23:13N 44°05' W 002°29'  

Dump ship's entire track history